createdAt,value
2019-01-11T00:00:15.559Z,2.10
2019-01-11T00:03:02.265Z,2.10
2019-01-11T00:05:48.230Z,2.10
2019-01-11T00:08:34.292Z,2.20
2019-01-11T00:11:20.207Z,2.10
2019-01-11T00:14:05.794Z,2.10
2019-01-11T00:16:51.728Z,2.20
2019-01-11T00:19:37.499Z,2.20
2019-01-11T00:22:23.160Z,2.20
2019-01-11T00:25:09.038Z,2.20
2019-01-11T00:27:55.148Z,2.20
2019-01-11T00:30:40.633Z,2.20
2019-01-11T00:33:26.402Z,2.30
2019-01-11T00:36:12.315Z,2.20
2019-01-11T00:38:57.939Z,2.30
2019-01-11T00:41:43.191Z,2.30
2019-01-11T00:44:28.855Z,2.30
2019-01-11T00:47:14.840Z,2.30
2019-01-11T00:50:00.301Z,2.30
2019-01-11T00:52:46.565Z,2.30
2019-01-11T00:55:32.058Z,2.30
2019-01-11T00:58:18.003Z,2.30
2019-01-11T01:01:04.615Z,2.40
2019-01-11T01:03:50.199Z,2.40
2019-01-11T01:06:35.926Z,2.40
2019-01-11T01:09:21.281Z,2.40
2019-01-11T01:12:07.016Z,2.40
2019-01-11T01:14:52.769Z,2.40
2019-01-11T01:17:38.362Z,2.40
2019-01-11T01:20:24.102Z,2.40
2019-01-11T01:23:10.085Z,2.40
2019-01-11T01:25:56.231Z,2.50
2019-01-11T01:28:42.209Z,2.50
2019-01-11T01:31:27.950Z,2.50
2019-01-11T01:34:13.969Z,2.50
2019-01-11T01:37:00.180Z,2.50
2019-01-11T01:39:45.524Z,2.60
2019-01-11T01:42:30.988Z,2.60
2019-01-11T01:45:17.386Z,2.60
2019-01-11T01:48:03.425Z,2.60
2019-01-11T01:50:49.527Z,2.60
2019-01-11T01:53:35.120Z,2.60
2019-01-11T01:56:21.086Z,2.70
2019-01-11T01:59:06.427Z,2.70
2019-01-11T02:01:52.211Z,2.70
2019-01-11T02:04:38.518Z,2.70
2019-01-11T02:07:24.001Z,2.70
2019-01-11T02:10:10.833Z,2.70
2019-01-11T02:12:56.610Z,2.80
2019-01-11T02:15:42.387Z,2.80
2019-01-11T02:18:28.371Z,2.80
2019-01-11T02:21:13.974Z,2.80
2019-01-11T02:23:59.696Z,2.90
2019-01-11T02:26:45.317Z,2.80
2019-01-11T02:29:31.178Z,2.90
2019-01-11T02:32:17.160Z,2.90
2019-01-11T02:35:03.124Z,2.90
2019-01-11T02:37:48.673Z,2.90
2019-01-11T02:40:34.194Z,2.90
2019-01-11T02:43:19.743Z,3.00
2019-01-11T02:46:05.794Z,3.00
2019-01-11T02:48:52.807Z,3.00
2019-01-11T02:51:38.632Z,3.00
2019-01-11T02:54:24.523Z,3.00
2019-01-11T02:57:10.412Z,3.00
2019-01-11T02:59:55.842Z,3.00
2019-01-11T03:02:41.642Z,3.00
2019-01-11T03:05:27.503Z,3.10
2019-01-11T03:08:13.077Z,3.10
2019-01-11T03:10:58.772Z,3.10
2019-01-11T03:13:44.353Z,3.10
2019-01-11T03:16:30.429Z,3.10
2019-01-11T03:19:16.229Z,3.10
2019-01-11T03:22:01.881Z,3.10
2019-01-11T03:24:48.935Z,3.10
2019-01-11T03:27:34.183Z,3.10
2019-01-11T03:30:20.185Z,3.10
2019-01-11T03:33:05.864Z,3.10
2019-01-11T03:35:51.578Z,3.10
2019-01-11T03:38:38.093Z,3.10
2019-01-11T03:41:23.728Z,3.10
2019-01-11T03:44:09.083Z,3.20
2019-01-11T03:46:54.963Z,3.20
2019-01-11T03:49:41.344Z,3.20
2019-01-11T03:52:27.759Z,3.20
2019-01-11T03:55:14.440Z,3.20
2019-01-11T03:58:00.673Z,3.20
2019-01-11T04:00:46.703Z,3.20
2019-01-11T04:03:32.057Z,3.20
2019-01-11T04:06:17.763Z,3.30
2019-01-11T04:09:08.239Z,3.30
2019-01-11T04:11:53.743Z,3.30
2019-01-11T04:14:39.592Z,3.30
2019-01-11T04:17:26.074Z,3.30
2019-01-11T04:20:14.935Z,3.40
2019-01-11T04:23:00.217Z,3.40
2019-01-11T04:25:46.943Z,3.40
2019-01-11T04:28:32.451Z,3.40
2019-01-11T04:31:18.118Z,3.40
2019-01-11T04:34:03.868Z,3.50
2019-01-11T04:36:49.655Z,3.50
2019-01-11T04:39:35.286Z,3.50
2019-01-11T04:42:21.032Z,3.50
2019-01-11T04:45:07.496Z,3.50
2019-01-11T04:47:53.528Z,3.50
2019-01-11T04:50:39.624Z,3.50
2019-01-11T04:53:25.626Z,3.60
2019-01-11T04:56:11.388Z,3.60
2019-01-11T04:58:56.646Z,3.70
2019-01-11T05:01:42.964Z,3.70
2019-01-11T05:04:28.755Z,3.70
2019-01-11T05:07:14.777Z,3.70
2019-01-11T05:10:00.842Z,3.70
2019-01-11T05:12:46.886Z,3.80
2019-01-11T05:15:32.831Z,3.80
2019-01-11T05:18:19.390Z,3.80
2019-01-11T05:21:05.443Z,3.80
2019-01-11T05:23:51.670Z,3.90
2019-01-11T05:26:37.627Z,3.90
2019-01-11T05:29:23.598Z,3.90
2019-01-11T05:32:09.498Z,3.90
2019-01-11T05:34:55.522Z,4.00
2019-01-11T05:37:41.511Z,4.00
2019-01-11T05:40:27.900Z,4.00
2019-01-11T05:43:13.731Z,4.00
2019-01-11T05:45:59.551Z,4.10
2019-01-11T05:48:45.161Z,4.10
2019-01-11T05:51:30.885Z,4.20
2019-01-11T05:54:16.459Z,4.20
2019-01-11T05:57:02.020Z,4.30
2019-01-11T05:59:47.743Z,4.40
2019-01-11T06:02:33.726Z,4.40
2019-01-11T06:05:19.848Z,4.40
2019-01-11T06:08:11.934Z,4.50
2019-01-11T06:10:57.948Z,4.60
2019-01-11T06:13:44.103Z,4.60
2019-01-11T06:16:29.957Z,4.70
2019-01-11T06:19:15.460Z,4.70
2019-01-11T06:22:01.047Z,4.80
2019-01-11T06:24:47.320Z,4.80
2019-01-11T06:27:32.907Z,4.80
2019-01-11T06:30:19.114Z,4.90
2019-01-11T06:33:05.283Z,4.90
2019-01-11T06:35:51.155Z,5.00
2019-01-11T06:38:37.106Z,5.00
2019-01-11T06:41:25.549Z,5.00
2019-01-11T06:44:11.243Z,5.00
2019-01-11T06:46:56.677Z,5.10
2019-01-11T06:49:42.114Z,5.00
2019-01-11T06:52:28.064Z,5.00
2019-01-11T06:55:13.976Z,5.00
2019-01-11T06:58:00.205Z,5.00
2019-01-11T07:00:46.166Z,5.00
2019-01-11T07:03:32.382Z,5.00
2019-01-11T07:06:18.144Z,5.10
2019-01-11T07:09:07.299Z,5.10
2019-01-11T07:11:53.093Z,5.20
2019-01-11T07:14:38.974Z,5.20
2019-01-11T07:17:24.303Z,5.20
2019-01-11T07:20:10.747Z,5.30
2019-01-11T07:22:56.533Z,5.30
2019-01-11T07:25:42.734Z,5.30
2019-01-11T07:28:30.834Z,5.40
2019-01-11T07:31:20.947Z,5.40
2019-01-11T07:34:06.338Z,5.40
2019-01-11T07:36:53.417Z,5.40
2019-01-11T07:39:39.222Z,5.50
2019-01-11T07:42:25.298Z,5.50
2019-01-11T07:45:11.651Z,5.50
2019-01-11T07:47:57.486Z,5.50
2019-01-11T07:50:49.174Z,5.60
2019-01-11T07:53:30.986Z,5.60
2019-01-11T07:56:16.604Z,5.70
2019-01-11T07:59:03.272Z,5.80
2019-01-11T08:01:49.274Z,5.90
2019-01-11T08:04:35.458Z,6.00
2019-01-11T08:07:21.381Z,6.00
2019-01-11T08:10:07.779Z,6.10
2019-01-11T08:12:54.566Z,6.10
2019-01-11T08:15:39.914Z,6.20
2019-01-11T08:18:25.764Z,6.30
2019-01-11T08:21:11.504Z,6.40
2019-01-11T08:23:57.350Z,6.40
2019-01-11T08:26:43.912Z,6.50
2019-01-11T08:29:29.635Z,6.50
2019-01-11T08:32:15.314Z,6.60
2019-01-11T08:35:03.055Z,6.60
2019-01-11T08:37:48.938Z,6.60
2019-01-11T08:40:34.830Z,6.70
2019-01-11T08:43:20.774Z,6.70
2019-01-11T08:46:07.332Z,6.70
2019-01-11T08:48:53.019Z,6.80
2019-01-11T08:51:39.326Z,6.80
2019-01-11T08:54:25.294Z,6.80
2019-01-11T08:57:11.201Z,6.90
2019-01-11T08:59:56.604Z,6.90
2019-01-11T09:02:42.606Z,6.90
2019-01-11T09:05:28.565Z,6.90
2019-01-11T09:08:14.114Z,7.00
2019-01-11T09:11:00.130Z,7.00
2019-01-11T09:13:45.638Z,7.00
2019-01-11T09:16:31.251Z,7.00
2019-01-11T09:19:17.479Z,7.00
2019-01-11T09:22:03.230Z,7.10
2019-01-11T09:24:49.167Z,7.10
2019-01-11T09:27:35.319Z,7.10
2019-01-11T09:30:21.363Z,7.10
2019-01-11T09:33:07.306Z,7.10
2019-01-11T09:35:53.726Z,7.10
2019-01-11T09:38:39.254Z,7.10
2019-01-11T09:41:25.616Z,7.20
2019-01-11T09:44:11.283Z,7.20
2019-01-11T09:46:58.363Z,7.20
2019-01-11T09:49:43.908Z,7.20
2019-01-11T09:52:29.791Z,7.20
2019-01-11T09:55:15.428Z,7.20
2019-01-11T09:58:01.155Z,7.20
2019-01-11T10:00:46.948Z,7.20
2019-01-11T10:03:32.231Z,7.20
2019-01-11T10:06:18.265Z,7.20
2019-01-11T10:09:05.429Z,7.20
2019-01-11T10:11:51.518Z,7.20
2019-01-11T10:14:37.462Z,7.20
2019-01-11T10:17:23.115Z,7.20
2019-01-11T10:20:09.497Z,7.30
2019-01-11T10:22:55.210Z,7.20
2019-01-11T10:25:41.101Z,7.30
2019-01-11T10:28:28.075Z,7.30
2019-01-11T10:31:13.876Z,7.30
2019-01-11T10:33:59.566Z,7.30
2019-01-11T10:36:44.875Z,7.30
2019-01-11T10:39:30.306Z,7.40
2019-01-11T10:42:18.684Z,7.40
2019-01-11T10:45:06.779Z,7.50
2019-01-11T10:47:53.262Z,7.50
2019-01-11T10:50:39.195Z,7.50
2019-01-11T10:53:24.935Z,7.60
2019-01-11T10:56:10.455Z,7.60
2019-01-11T10:58:55.809Z,7.50
2019-01-11T11:01:41.100Z,7.60
2019-01-11T11:04:26.594Z,7.60
2019-01-11T11:07:12.015Z,7.60
2019-01-11T11:09:58.853Z,7.50
2019-01-11T11:12:44.840Z,7.50
2019-01-11T11:15:30.598Z,7.50
2019-01-11T11:18:16.569Z,7.60
2019-01-11T11:21:02.021Z,7.60
2019-01-11T11:23:48.443Z,7.60
2019-01-11T11:26:34.443Z,7.60
2019-01-11T11:29:20.584Z,7.60
2019-01-11T11:32:05.940Z,7.60
2019-01-11T11:34:51.459Z,7.70
2019-01-11T11:37:37.227Z,7.70
2019-01-11T11:40:23.427Z,7.60
2019-01-11T11:43:09.365Z,7.70
2019-01-11T11:45:55.554Z,7.70
2019-01-11T11:48:41.683Z,7.70
2019-01-11T11:51:27.403Z,7.70
2019-01-11T11:54:13.417Z,7.70
2019-01-11T11:56:59.029Z,7.80
2019-01-11T11:59:45.717Z,7.80
2019-01-11T12:07:31.428Z,7.70
2019-01-11T12:10:18.175Z,7.60
2019-01-11T12:13:03.671Z,7.60
2019-01-11T12:15:49.509Z,7.50
2019-01-11T12:18:48.127Z,7.50
2019-01-11T12:21:33.972Z,7.60
2019-01-11T12:24:19.647Z,7.50
2019-01-11T12:27:05.635Z,7.50
2019-01-11T12:29:51.821Z,7.60
2019-01-11T12:32:37.546Z,7.70
2019-01-11T12:35:23.558Z,7.70
2019-01-11T12:38:13.622Z,7.80
2019-01-11T12:40:56.771Z,7.70
2019-01-11T12:43:42.413Z,7.70
2019-01-11T12:46:27.872Z,7.60
2019-01-11T12:49:13.705Z,7.70
2019-01-11T12:51:59.780Z,7.70
2019-01-11T12:54:45.727Z,7.80
2019-01-11T12:57:31.726Z,7.80
2019-01-11T13:00:17.996Z,7.70
2019-01-11T13:03:03.438Z,7.70
2019-01-11T13:05:49.323Z,7.70
2019-01-11T13:08:35.083Z,7.60
2019-01-11T13:11:20.513Z,7.60
2019-01-11T13:14:06.273Z,7.60
2019-01-11T13:16:54.818Z,7.60
2019-01-11T13:19:40.855Z,7.60
2019-01-11T13:22:37.776Z,7.50
2019-01-11T13:25:23.706Z,7.60
2019-01-11T13:28:09.555Z,7.60
2019-01-11T13:30:55.183Z,7.60
2019-01-11T13:33:41.202Z,7.60
2019-01-11T13:36:27.146Z,7.60
2019-01-11T13:39:13.404Z,7.60
2019-01-11T13:41:59.191Z,7.60
2019-01-11T13:44:44.451Z,7.60
2019-01-11T13:47:29.883Z,7.60
2019-01-11T13:50:41.098Z,7.60
2019-01-11T13:53:27.247Z,7.60
2019-01-11T13:56:13.254Z,7.60
2019-01-11T13:58:59.519Z,7.60
2019-01-11T14:01:45.063Z,7.60
2019-01-11T14:04:31.315Z,7.60
2019-01-11T14:07:16.867Z,7.60
2019-01-11T14:10:03.253Z,7.60
2019-01-11T14:12:49.340Z,7.60
2019-01-11T14:15:35.441Z,7.60
2019-01-11T14:18:21.247Z,7.60
2019-01-11T14:21:06.828Z,7.60
2019-01-11T14:23:52.087Z,7.60
2019-01-11T14:26:37.566Z,7.50
2019-01-11T14:29:23.480Z,7.50
2019-01-11T14:32:09.833Z,7.50
2019-01-11T14:34:55.187Z,7.50
2019-01-11T14:37:40.872Z,7.50
2019-01-11T14:40:26.827Z,7.50
2019-01-11T14:43:25.947Z,7.50
2019-01-11T14:46:11.291Z,7.50
2019-01-11T14:48:57.390Z,7.40
2019-01-11T14:51:43.069Z,7.40
2019-01-11T14:54:29.134Z,7.40
2019-01-11T14:57:15.333Z,7.40
2019-01-11T15:00:00.847Z,7.40
2019-01-11T15:02:46.935Z,7.40
2019-01-11T15:05:33.135Z,7.40
2019-01-11T15:08:18.853Z,7.40
2019-01-11T15:11:04.660Z,7.40
2019-01-11T15:13:50.587Z,7.40
2019-01-11T15:16:36.590Z,7.40
2019-01-11T15:19:22.960Z,7.40
2019-01-11T15:22:09.013Z,7.30
2019-01-11T15:24:54.793Z,7.30
2019-01-11T15:27:41.829Z,7.30
2019-01-11T15:30:27.886Z,7.30
2019-01-11T15:33:13.530Z,7.30
2019-01-11T15:35:58.822Z,7.30
2019-01-11T15:38:44.952Z,7.30
2019-01-11T15:41:30.799Z,7.30
2019-01-11T15:44:16.737Z,7.30
2019-01-11T15:47:02.961Z,7.30
2019-01-11T15:49:48.633Z,7.30
2019-01-11T15:52:34.387Z,7.30
2019-01-11T15:55:19.943Z,7.30
2019-01-11T15:58:06.106Z,7.30
2019-01-11T16:00:52.185Z,7.30
2019-01-11T16:03:37.705Z,7.30
2019-01-11T16:06:26.635Z,7.30
2019-01-11T16:09:56.792Z,7.30
2019-01-11T16:13:11.948Z,7.30
2019-01-11T16:16:21.398Z,7.20
2019-01-11T16:19:06.919Z,7.20
2019-01-11T16:21:53.409Z,7.20
2019-01-11T16:24:39.332Z,7.30
2019-01-11T16:27:25.654Z,7.30
2019-01-11T16:30:11.687Z,7.20
2019-01-11T16:32:57.577Z,7.20
2019-01-11T16:35:43.189Z,7.20
2019-01-11T16:38:28.540Z,7.20
2019-01-11T16:41:14.355Z,7.20
2019-01-11T16:43:59.903Z,7.20
2019-01-11T16:46:45.753Z,7.20
2019-01-11T16:49:31.504Z,7.10
2019-01-11T16:52:17.369Z,7.10
2019-01-11T16:55:04.185Z,7.10
2019-01-11T16:57:49.642Z,7.10
2019-01-11T17:00:35.119Z,7.10
2019-01-11T17:03:20.631Z,7.10
2019-01-11T17:06:06.534Z,7.10
2019-01-11T17:08:52.409Z,7.00
2019-01-11T17:11:38.400Z,7.00
2019-01-11T17:14:24.353Z,7.00
2019-01-11T17:17:10.163Z,7.00
2019-01-11T17:19:56.029Z,7.00
2019-01-11T17:22:41.694Z,7.00
2019-01-11T17:25:27.377Z,7.00
2019-01-11T17:28:13.159Z,7.00
2019-01-11T17:30:59.056Z,7.00
2019-01-11T17:33:44.974Z,7.00
2019-01-11T17:36:31.054Z,7.00
2019-01-11T17:39:16.604Z,6.90
2019-01-11T17:42:02.591Z,6.90
2019-01-11T17:44:48.288Z,6.90
2019-01-11T17:47:34.114Z,6.90
2019-01-11T17:50:19.741Z,6.90
2019-01-11T17:53:05.407Z,6.90
2019-01-11T17:55:51.233Z,6.90
2019-01-11T17:58:36.994Z,6.90
2019-01-11T18:01:22.811Z,6.90
2019-01-11T18:04:08.364Z,6.90
2019-01-11T18:06:54.463Z,6.90
2019-01-11T18:09:40.055Z,6.90
2019-01-11T18:12:25.926Z,6.90
2019-01-11T18:15:14.076Z,6.90
2019-01-11T18:17:59.863Z,6.90
2019-01-11T18:20:45.532Z,6.90
2019-01-11T18:23:34.342Z,6.90
2019-01-11T18:26:20.387Z,7.00
2019-01-11T18:29:05.990Z,6.90
2019-01-11T18:31:52.590Z,6.90
2019-01-11T18:34:38.888Z,6.90
2019-01-11T18:37:24.906Z,6.90
2019-01-11T18:40:16.955Z,6.90
2019-01-11T18:43:03.350Z,6.90
2019-01-11T18:45:49.245Z,6.90
2019-01-11T18:48:34.827Z,6.90
2019-01-11T18:51:20.922Z,6.90
2019-01-11T18:54:06.523Z,6.90
2019-01-11T18:56:52.913Z,6.80
2019-01-11T18:59:38.922Z,6.80
2019-01-11T19:02:24.387Z,6.80
2019-01-11T19:05:12.174Z,6.70
2019-01-11T19:07:59.039Z,6.70
2019-01-11T19:10:44.786Z,6.70
2019-01-11T19:13:30.903Z,6.60
2019-01-11T19:16:16.452Z,6.60
2019-01-11T19:19:02.874Z,6.60
2019-01-11T19:21:49.058Z,6.60
2019-01-11T19:24:35.195Z,6.60
2019-01-11T19:27:21.578Z,6.70
2019-01-11T19:30:12.322Z,6.70
2019-01-11T19:32:57.855Z,6.60
2019-01-11T19:35:44.935Z,6.60
2019-01-11T19:38:32.628Z,6.60
2019-01-11T19:41:20.078Z,6.60
2019-01-11T19:44:05.708Z,6.60
2019-01-11T19:46:51.675Z,6.60
2019-01-11T19:49:37.415Z,6.50
2019-01-11T19:52:25.797Z,6.50
2019-01-11T19:55:11.842Z,6.50
2019-01-11T19:57:57.618Z,6.50
2019-01-11T20:00:43.772Z,6.50
2019-01-11T20:03:29.982Z,6.40
2019-01-11T20:06:16.110Z,6.40
2019-01-11T20:09:03.953Z,6.40
2019-01-11T20:11:50.593Z,6.40
2019-01-11T20:14:37.880Z,6.30
2019-01-11T20:17:23.875Z,6.40
2019-01-11T20:20:11.498Z,6.40
2019-01-11T20:23:02.132Z,6.30
2019-01-11T20:25:45.481Z,6.30
2019-01-11T20:28:31.626Z,6.30
2019-01-11T20:31:17.447Z,6.30
2019-01-11T20:34:03.445Z,6.30
2019-01-11T20:37:05.984Z,6.30
2019-01-11T20:39:53.476Z,6.20
2019-01-11T20:42:39.579Z,6.20
2019-01-11T20:45:25.458Z,6.20
2019-01-11T20:48:11.027Z,6.20
2019-01-11T20:50:57.203Z,6.20
2019-01-11T20:53:43.169Z,6.20
2019-01-11T20:56:31.104Z,6.10
2019-01-11T20:59:16.598Z,6.10
2019-01-11T21:02:02.887Z,6.10
2019-01-11T21:04:48.865Z,6.10
2019-01-11T21:07:35.283Z,6.20
2019-01-11T21:10:21.547Z,6.10
2019-01-11T21:13:07.803Z,6.10
2019-01-11T21:15:53.655Z,6.10
2019-01-11T21:18:39.662Z,6.10
2019-01-11T21:21:26.422Z,6.10
2019-01-11T21:24:12.649Z,6.10
2019-01-11T21:26:58.267Z,6.10
2019-01-11T21:29:44.533Z,6.10
2019-01-11T21:32:31.418Z,6.20
2019-01-11T21:35:17.414Z,6.20
2019-01-11T21:38:03.333Z,6.20
2019-01-11T21:40:51.274Z,6.20
2019-01-11T21:43:36.844Z,6.20
2019-01-11T21:46:22.411Z,6.30
2019-01-11T21:49:08.317Z,6.20
2019-01-11T21:51:53.872Z,6.20
2019-01-11T21:54:40.317Z,6.20
2019-01-11T21:57:25.971Z,6.20
2019-01-11T22:00:33.021Z,6.20
2019-01-11T22:03:20.188Z,6.20
2019-01-11T22:06:06.118Z,6.30
2019-01-11T22:08:51.888Z,6.30
2019-01-11T22:11:37.723Z,6.30
2019-01-11T22:14:23.596Z,6.30
2019-01-11T22:17:09.423Z,6.30
2019-01-11T22:19:56.131Z,6.30
2019-01-11T22:22:42.184Z,6.30
2019-01-11T22:25:28.058Z,6.30
2019-01-11T22:28:14.241Z,6.30
2019-01-11T22:30:59.964Z,6.30
2019-01-11T22:33:45.795Z,6.30
2019-01-11T22:36:33.492Z,6.30
2019-01-11T22:39:19.194Z,6.30
2019-01-11T22:42:05.136Z,6.30
2019-01-11T22:44:51.254Z,6.30
2019-01-11T22:47:37.327Z,6.30
2019-01-11T22:50:23.739Z,6.30
2019-01-11T22:53:09.104Z,6.30
2019-01-11T22:55:55.400Z,6.40
2019-01-11T22:58:41.356Z,6.50
2019-01-11T23:01:58.200Z,6.40
2019-01-11T23:04:43.988Z,6.40
2019-01-11T23:08:02.906Z,6.40
2019-01-11T23:11:17.051Z,6.50
2019-01-11T23:14:03.739Z,6.50
2019-01-11T23:17:04.040Z,6.50
2019-01-11T23:19:49.726Z,6.60
2019-01-11T23:22:35.480Z,6.50
2019-01-11T23:25:21.223Z,6.50
2019-01-11T23:28:06.479Z,6.50
2019-01-11T23:30:52.234Z,6.60
2019-01-11T23:33:38.475Z,6.60
2019-01-11T23:36:24.733Z,6.60
2019-01-11T23:39:10.659Z,6.60
2019-01-11T23:41:56.303Z,6.60
2019-01-11T23:44:42.111Z,6.60
2019-01-11T23:47:27.962Z,6.60
2019-01-11T23:50:15.608Z,6.60
2019-01-11T23:53:01.745Z,6.70
2019-01-11T23:55:47.307Z,6.70
2019-01-11T23:58:32.939Z,6.70
